Time;durP1;ratioP1;P1;durP2;ratioP2;P2;SDS_P1;SDS_P2;PMS_P1;PMS_P2;Temp;Humidity;BMP_temperature;BMP_pressure;BME280_temperature;BME280_humidity;BME280_pressure;Samples;Min_cycle;Max_cycle;Signal;HPM_P1;HPM_P2
2022/03/26 00:02:20;;;;;;;8.75;6.28;;;;;;;17.12;29.87;94300.34;5053261;28;20032;-89
2022/03/26 00:04:45;;;;;;;8.27;5.50;;;;;;;17.11;29.32;94298.09;5054687;28;20029;-89
2022/03/26 00:07:11;;;;;;;7.82;5.70;;;;;;;17.10;29.34;94289.16;5053849;28;20044;-89
2022/03/26 00:09:36;;;;;;;8.48;6.38;;;;;;;17.10;29.94;94294.59;5071533;28;20110;-89
2022/03/26 00:12:02;;;;;;;6.78;5.35;;;;;;;17.10;29.53;94291.88;5054341;28;20044;-89
2022/03/26 00:14:27;;;;;;;8.88;6.00;;;;;;;17.09;29.47;94297.84;5036903;28;20078;-89
2022/03/26 00:16:53;;;;;;;9.70;6.32;;;;;;;17.11;29.69;94301.56;5050238;28;20033;-89
2022/03/26 00:19:18;;;;;;;6.90;4.90;;;;;;;17.09;29.36;94298.59;5053043;28;20032;-89
2022/03/26 00:21:46;;;;;;;8.88;6.07;;;;;;;17.08;29.62;94297.09;5074669;28;20569;-90
2022/03/26 00:24:11;;;;;;;7.68;5.38;;;;;;;17.09;29.89;94300.56;5056514;28;20102;-90
2022/03/26 00:26:36;;;;;;;7.15;4.85;;;;;;;17.09;29.60;94300.56;5021779;28;20045;-89
2022/03/26 00:29:02;;;;;;;8.82;6.00;;;;;;;17.10;29.47;94291.16;5038839;28;20101;-89
2022/03/26 00:31:29;;;;;;;9.38;6.68;;;;;;;17.09;29.61;94293.13;5018256;28;20033;-90
2022/03/26 00:33:55;;;;;;;7.80;6.25;;;;;;;17.09;29.36;94293.13;5031153;28;20040;-90
2022/03/26 00:36:20;;;;;;;9.38;6.68;;;;;;;17.08;29.41;94293.59;5034844;28;20041;-89
2022/03/26 00:38:46;;;;;;;8.43;5.78;;;;;;;17.08;29.68;94297.09;5021589;28;20052;-89
2022/03/26 00:41:12;;;;;;;7.97;5.60;;;;;;;17.08;29.33;94294.38;5034898;28;20033;-89
2022/03/26 00:43:38;;;;;;;8.70;6.25;;;;;;;17.08;29.48;94305.28;5034045;28;20025;-89
2022/03/26 00:46:03;;;;;;;10.15;5.97;;;;;;;17.07;29.42;94303.78;5043808;28;20072;-90
2022/03/26 00:48:28;;;;;;;8.32;5.70;;;;;;;17.06;29.74;94294.09;5037565;28;20135;-89
2022/03/26 00:50:54;;;;;;;8.52;5.85;;;;;;;17.07;29.64;94292.84;5053788;28;20040;-89
2022/03/26 00:53:19;;;;;;;8.60;5.32;;;;;;;17.12;29.60;94289.41;5070692;28;20036;-89
2022/03/26 00:55:45;;;;;;;7.82;5.65;;;;;;;17.07;29.53;94295.59;5071310;28;20036;-90
2022/03/26 00:58:10;;;;;;;10.50;6.78;;;;;;;17.06;29.56;94293.34;5072541;28;20040;-89
2022/03/26 01:00:36;;;;;;;9.50;6.05;;;;;;;17.08;29.30;94296.34;5037498;28;20507;-89
2022/03/26 01:03:02;;;;;;;8.57;5.72;;;;;;;17.06;29.56;94287.88;5049522;28;20041;-89
2022/03/26 01:05:28;;;;;;;7.32;5.70;;;;;;;17.07;29.69;94286.66;5069960;28;20029;-89
2022/03/26 01:07:53;;;;;;;8.90;5.90;;;;;;;17.05;29.57;94295.31;5055521;28;20510;-90
2022/03/26 01:10:19;;;;;;;9.50;5.75;;;;;;;17.05;29.64;94287.13;5055115;28;20029;-90
2022/03/26 01:12:44;;;;;;;10.57;7.03;;;;;;;17.06;29.45;94290.59;5070945;28;20033;-89
2022/03/26 01:15:09;;;;;;;7.80;5.72;;;;;;;17.04;29.37;94284.88;5053422;28;20037;-90
2022/03/26 01:17:36;;;;;;;9.40;5.95;;;;;;;17.06;29.67;94291.34;5054751;28;20380;-90
2022/03/26 01:20:04;;;;;;;9.55;6.65;;;;;;;17.02;29.27;94279.13;5070825;28;20103;-89
2022/03/26 01:22:29;;;;;;;10.05;6.35;;;;;;;17.03;29.87;94281.38;5042343;28;20617;-90
2022/03/26 01:24:54;;;;;;;7.53;5.55;;;;;;;17.02;29.57;94284.59;5054977;28;20033;-89
2022/03/26 01:27:20;;;;;;;8.68;6.15;;;;;;;17.04;29.69;94288.34;5054968;28;20560;-89
2022/03/26 01:29:46;;;;;;;9.50;6.18;;;;;;;17.07;29.75;94281.19;5054883;28;20037;-89
2022/03/26 01:32:11;;;;;;;8.48;6.05;;;;;;;17.05;29.50;94280.91;5053739;28;20040;-90
2022/03/26 01:34:37;;;;;;;8.20;5.95;;;;;;;17.04;29.36;94287.59;5054377;28;20454;-90
2022/03/26 01:37:03;;;;;;;9.85;6.30;;;;;;;17.02;29.60;94284.59;5053955;28;20059;-89
2022/03/26 01:39:29;;;;;;;10.45;5.63;;;;;;;17.02;29.43;94279.13;5033892;28;20094;-89
2022/03/26 01:42:04;;;;;;;10.85;6.30;;;;;;;17.04;29.28;94280.16;5017131;28;20415;-89
2022/03/26 01:44:29;;;;;;;8.77;6.22;;;;;;;17.01;29.39;94275.66;5016994;28;20499;-89
2022/03/26 01:46:54;;;;;;;9.27;6.40;;;;;;;17.01;29.64;94278.38;5047861;28;20036;-89
2022/03/26 01:49:21;;;;;;;8.90;5.82;;;;;;;17.00;29.53;94271.41;5035534;28;20396;-90
2022/03/26 01:51:47;;;;;;;8.23;6.20;;;;;;;16.99;29.47;94278.13;5032920;28;20031;-89
2022/03/26 01:54:13;;;;;;;8.63;6.43;;;;;;;17.03;29.84;94272.44;5019161;28;20033;-90
2022/03/26 01:56:40;;;;;;;8.70;6.43;;;;;;;17.00;29.70;94279.63;5083375;28;20031;-89
2022/03/26 01:59:06;;;;;;;11.32;6.40;;;;;;;17.01;29.72;94272.16;5071839;28;20047;-89
2022/03/26 02:01:34;;;;;;;9.80;6.35;;;;;;;17.00;29.34;94276.13;5055736;28;20467;-90
2022/03/26 02:04:01;;;;;;;9.13;5.90;;;;;;;17.01;29.31;94278.38;5047893;28;20401;-90
2022/03/26 02:06:31;;;;;;;7.43;5.38;;;;;;;17.00;29.46;94273.41;5071869;28;20040;-89
2022/03/26 02:08:57;;;;;;;10.73;6.40;;;;;;;17.01;29.40;94275.66;5057703;28;20036;-90
2022/03/26 02:11:23;;;;;;;9.55;6.00;;;;;;;16.99;29.65;94275.38;5056051;28;20425;-89
2022/03/26 02:13:54;;;;;;;9.50;6.57;;;;;;;16.98;29.50;94267.66;5089303;28;20047;-89
2022/03/26 02:16:21;;;;;;;8.77;6.07;;;;;;;16.99;29.28;94272.66;5029184;28;20033;-89
2022/03/26 02:18:48;;;;;;;8.73;6.28;;;;;;;17.00;29.64;94276.88;5015756;28;20060;-89
2022/03/26 02:21:14;;;;;;;9.35;5.90;;;;;;;16.98;29.20;94279.34;5015439;28;20499;-89
2022/03/26 02:23:39;;;;;;;9.23;6.43;;;;;;;16.97;29.42;94279.81;5021771;28;20055;-90
2022/03/26 02:26:04;;;;;;;8.73;5.60;;;;;;;16.97;29.47;94277.09;5012271;28;20505;-90
2022/03/26 02:28:31;;;;;;;9.68;6.22;;;;;;;16.99;29.45;94269.16;4998766;28;20328;-90
2022/03/26 02:30:56;;;;;;;12.75;6.75;;;;;;;16.98;29.80;94262.19;5010977;28;20049;-89
2022/03/26 02:33:21;;;;;;;8.52;5.78;;;;;;;16.96;29.83;94254.50;5015077;28;20392;-89
2022/03/26 02:35:48;;;;;;;10.18;6.05;;;;;;;16.96;29.59;94270.88;4998504;28;20523;-89
2022/03/26 02:38:13;;;;;;;8.77;5.85;;;;;;;16.98;29.73;94267.66;4995592;28;20045;-89
2022/03/26 02:40:38;;;;;;;11.77;6.28;;;;;;;16.95;29.59;94266.63;4995589;28;20088;-89
2022/03/26 02:43:07;;;;;;;10.38;6.40;;;;;;;16.95;29.75;94263.91;5027912;28;20078;-89
2022/03/26 02:45:32;;;;;;;10.38;6.50;;;;;;;16.95;28.93;94257.69;4995472;28;20045;-90
2022/03/26 02:47:58;;;;;;;10.93;6.30;;;;;;;16.94;29.32;94256.94;5043600;28;20050;-89
2022/03/26 02:50:24;;;;;;;8.40;5.95;;;;;;;16.95;29.42;94255.72;5035305;28;20083;-90
2022/03/26 02:52:50;;;;;;;9.65;6.20;;;;;;;16.97;29.46;94260.69;5018925;28;20029;-89
2022/03/26 02:55:16;;;;;;;8.80;6.35;;;;;;;16.95;29.79;94258.44;5018980;28;20055;-89
2022/03/26 02:57:42;;;;;;;8.43;5.75;;;;;;;16.94;29.58;94254.22;5020120;28;20028;-89
2022/03/26 03:00:09;;;;;;;11.73;7.07;;;;;;;16.94;29.54;94253.47;5032349;28;20500;-89
2022/03/26 03:02:34;;;;;;;8.70;5.90;;;;;;;16.96;29.54;94253.75;5016499;28;20036;-89
2022/03/26 03:05:01;;;;;;;9.30;6.10;;;;;;;16.94;29.53;94253.47;5015994;28;20057;-89
2022/03/26 03:07:26;;;;;;;9.18;6.47;;;;;;;16.94;29.59;94256.19;5031884;28;20036;-89
2022/03/26 03:09:52;;;;;;;7.95;5.85;;;;;;;16.95;29.43;94252.97;5016827;28;20037;-90
2022/03/26 03:12:17;;;;;;;9.88;5.70;;;;;;;16.93;29.55;94249.97;5015321;28;20056;-89
2022/03/26 03:14:43;;;;;;;11.23;6.85;;;;;;;16.95;29.59;94254.97;4999311;28;20121;-89
2022/03/26 03:17:09;;;;;;;10.15;5.55;;;;;;;16.93;29.48;94254.69;4999543;28;20048;-90
2022/03/26 03:19:35;;;;;;;9.25;5.53;;;;;;;16.93;29.87;94254.69;5000282;28;20033;-90
2022/03/26 03:22:01;;;;;;;8.85;5.75;;;;;;;16.91;29.76;94251.69;5016551;28;20382;-90
2022/03/26 03:24:26;;;;;;;8.15;5.97;;;;;;;16.92;29.43;94245.00;5035410;28;20040;-90
2022/03/26 03:26:52;;;;;;;9.63;6.00;;;;;;;16.93;29.29;94239.06;5047066;28;20037;-89
2022/03/26 03:29:17;;;;;;;8.23;6.20;;;;;;;16.91;29.34;94246.97;5037883;28;20052;-90
2022/03/26 03:31:47;;;;;;;7.85;5.65;;;;;;;16.94;29.72;94248.00;5055507;28;20502;-89
2022/03/26 03:34:13;;;;;;;11.88;6.13;;;;;;;16.91;29.55;94236.06;5039518;28;20086;-90
2022/03/26 03:36:38;;;;;;;8.93;6.15;;;;;;;16.92;29.59;94236.81;5038902;28;20652;-89
2022/03/26 03:39:03;;;;;;;10.77;6.22;;;;;;;16.90;29.23;94234.56;5055999;28;20133;-90
2022/03/26 03:41:29;;;;;;;10.60;6.22;;;;;;;16.91;29.42;94235.31;5056702;28;20048;-88
2022/03/26 03:43:54;;;;;;;8.98;6.47;;;;;;;16.92;29.31;94234.06;5056227;28;20055;-89
2022/03/26 03:46:20;;;;;;;8.85;6.25;;;;;;;16.88;29.59;94241.75;5056500;28;20540;-89
2022/03/26 03:48:45;;;;;;;9.40;6.28;;;;;;;16.88;29.73;94239.78;5055632;28;20028;-88
2022/03/26 03:51:10;;;;;;;9.25;6.45;;;;;;;16.89;29.45;94237.78;5038216;28;20036;-89
2022/03/26 03:53:36;;;;;;;7.65;5.93;;;;;;;16.90;29.75;94236.53;5054752;28;20028;-89
2022/03/26 03:56:01;;;;;;;7.70;5.13;;;;;;;16.88;29.65;94236.28;5056696;28;20058;-89
2022/03/26 03:58:27;;;;;;;9.32;6.18;;;;;;;16.88;29.55;94239.78;5055303;28;20395;-90
2022/03/26 04:00:53;;;;;;;9.40;6.05;;;;;;;16.89;29.49;94245.97;5055682;28;20024;-90
2022/03/26 04:03:18;;;;;;;8.13;5.80;;;;;;;16.88;29.60;94239.78;5067897;28;20036;-89
2022/03/26 04:05:45;;;;;;;8.07;6.00;;;;;;;16.87;29.64;94246.47;5039422;28;20036;-89
2022/03/26 04:08:10;;;;;;;7.50;5.18;;;;;;;16.88;29.29;94245.22;5056236;28;20032;-89
2022/03/26 04:10:36;;;;;;;9.13;6.57;;;;;;;16.84;29.40;94241.97;5040341;28;20082;-89
2022/03/26 04:13:01;;;;;;;8.63;5.38;;;;;;;16.85;29.58;94238.00;5072528;28;20036;-89
2022/03/26 04:15:27;;;;;;;8.15;5.65;;;;;;;16.88;29.38;94233.56;5052273;28;20037;-89
2022/03/26 04:17:54;;;;;;;8.30;5.40;;;;;;;16.86;29.35;94242.22;5052892;28;20525;-89
2022/03/26 04:20:20;;;;;;;8.15;5.57;;;;;;;16.85;29.78;94232.53;5052105;28;20560;-88
2022/03/26 04:22:46;;;;;;;8.43;6.18;;;;;;;16.87;29.57;94249.19;5071200;28;20086;-89
2022/03/26 04:25:11;;;;;;;9.65;6.75;;;;;;;16.88;29.69;94242.50;5074423;28;20037;-89
2022/03/26 04:27:36;;;;;;;9.63;6.30;;;;;;;16.85;29.65;94243.47;5057380;28;20032;-89
2022/03/26 04:30:02;;;;;;;11.07;6.25;;;;;;;16.86;29.25;94246.94;5040291;28;20052;-89
2022/03/26 04:32:29;;;;;;;9.60;6.30;;;;;;;16.84;29.68;94244.69;5056383;28;20052;-89
2022/03/26 04:34:55;;;;;;;8.32;5.93;;;;;;;16.85;29.84;94248.91;5036993;28;20037;-89
2022/03/26 04:37:22;;;;;;;7.63;5.88;;;;;;;16.86;29.52;94244.22;5056781;28;20048;-89
2022/03/26 04:39:48;;;;;;;10.57;6.07;;;;;;;16.87;29.50;94248.44;5040340;28;20029;-89
2022/03/26 04:42:14;;;;;;;7.55;5.13;;;;;;;16.85;29.44;94243.47;5039549;28;20048;-90
2022/03/26 04:44:40;;;;;;;9.60;5.60;;;;;;;16.84;29.75;94244.69;5039068;28;20040;-89
2022/03/26 04:47:07;;;;;;;8.13;5.70;;;;;;;16.83;29.49;94248.66;5054836;28;20032;-89
2022/03/26 04:49:32;;;;;;;9.45;6.00;;;;;;;16.85;29.43;94251.66;5039007;28;20096;-90
2022/03/26 04:51:58;;;;;;;8.70;6.10;;;;;;;16.85;29.65;94254.38;5042190;28;20025;-89
2022/03/26 04:54:23;;;;;;;8.25;5.68;;;;;;;16.86;29.65;94260.59;5070414;28;20480;-90
2022/03/26 04:56:49;;;;;;;8.07;5.85;;;;;;;16.83;29.51;94250.63;5039167;28;20213;-89
2022/03/26 04:59:14;;;;;;;9.20;5.72;;;;;;;16.87;29.51;94262.84;5055173;28;20094;-89
2022/03/26 05:01:44;;;;;;;8.68;5.82;;;;;;;16.83;29.44;94253.34;5053355;28;20048;-90
2022/03/26 05:04:11;;;;;;;8.65;5.72;;;;;;;16.82;29.86;94254.59;5053839;28;20094;-89
2022/03/26 05:06:37;;;;;;;10.57;5.28;;;;;;;16.82;29.62;94257.31;5038813;28;20024;-89
2022/03/26 05:09:03;;;;;;;9.20;6.10;;;;;;;16.81;29.52;94264.75;5052085;28;20041;-89
2022/03/26 05:11:28;;;;;;;6.45;4.90;;;;;;;16.84;29.39;94257.59;5054929;28;20048;-89
2022/03/26 05:13:54;;;;;;;7.82;5.60;;;;;;;16.84;29.37;94260.31;5071511;28;20048;-89
2022/03/26 05:16:19;;;;;;;7.40;5.70;;;;;;;16.83;29.43;94258.81;5055878;28;20081;-89
2022/03/26 05:18:44;;;;;;;6.88;5.30;;;;;;;16.84;29.66;94261.06;5039148;28;20090;-89
2022/03/26 05:21:10;;;;;;;8.90;6.03;;;;;;;16.82;29.84;94260.78;5054508;28;20037;-90
2022/03/26 05:23:35;;;;;;;8.23;5.68;;;;;;;16.84;29.52;94268.50;5055506;28;20040;-89
2022/03/26 05:26:01;;;;;;;7.53;5.90;;;;;;;16.82;29.82;94257.31;5054423;28;20056;-89
2022/03/26 05:28:27;;;;;;;7.63;5.50;;;;;;;16.82;29.80;94262.78;5040502;28;20048;-90
2022/03/26 05:30:52;;;;;;;8.73;6.00;;;;;;;16.83;29.34;94267.00;5055396;28;20044;-89
2022/03/26 05:33:18;;;;;;;7.13;5.40;;;;;;;16.82;29.40;94260.03;5053309;28;20437;-90
2022/03/26 05:35:43;;;;;;;7.70;5.60;;;;;;;16.84;29.57;94266.53;5053845;28;20035;-90
2022/03/26 05:38:09;;;;;;;9.85;5.75;;;;;;;16.85;29.46;94270.00;5055551;28;20041;-90
2022/03/26 05:40:35;;;;;;;7.90;5.22;;;;;;;16.85;29.64;94272.75;5060151;28;20081;-89
2022/03/26 05:43:00;;;;;;;8.82;5.88;;;;;;;16.85;29.59;94280.94;5076356;28;20048;-89
2022/03/26 05:45:26;;;;;;;7.50;5.25;;;;;;;16.88;29.58;94282.72;5055157;28;20033;-90
2022/03/26 05:47:55;;;;;;;9.02;6.00;;;;;;;16.89;29.45;94292.41;5021739;28;20518;-89
2022/03/26 05:50:21;;;;;;;8.02;5.57;;;;;;;16.90;29.55;94283.72;5037823;28;20488;-89
2022/03/26 05:52:47;;;;;;;8.52;6.05;;;;;;;16.87;29.59;94295.63;5020680;28;20419;-89
2022/03/26 05:55:12;;;;;;;9.30;5.80;;;;;;;16.87;29.69;94298.34;5052685;28;20033;-91
2022/03/26 05:57:38;;;;;;;7.90;5.47;;;;;;;16.88;29.69;94301.84;5055525;28;20040;-89
2022/03/26 06:00:04;;;;;;;8.02;5.50;;;;;;;16.90;29.79;94300.09;5037958;28;20103;-89
2022/03/26 06:02:29;;;;;;;8.93;5.70;;;;;;;16.90;29.66;94297.38;5038231;28;20040;-89
2022/03/26 06:04:54;;;;;;;7.60;5.30;;;;;;;16.93;29.89;94303.84;5037137;28;20544;-89
2022/03/26 06:07:20;;;;;;;5.88;4.55;;;;;;;16.94;29.76;94299.88;5037330;28;20483;-90
2022/03/26 06:09:45;;;;;;;9.55;5.70;;;;;;;16.94;29.47;94308.84;5022745;28;20029;-89
2022/03/26 06:12:12;;;;;;;8.13;5.60;;;;;;;16.93;29.80;94299.13;5031557;28;20032;-89
2022/03/26 06:14:37;;;;;;;7.70;5.13;;;;;;;16.96;29.59;94308.34;5040552;28;20048;-89
2022/03/26 06:17:03;;;;;;;8.98;5.13;;;;;;;16.96;29.63;94305.63;5056707;28;20062;-89
2022/03/26 06:19:29;;;;;;;8.82;5.13;;;;;;;16.99;29.45;94307.41;5057160;28;20040;-89
2022/03/26 06:21:55;;;;;;;7.40;5.28;;;;;;;16.98;29.66;94314.84;5073721;28;20059;-89
2022/03/26 06:24:22;;;;;;;7.13;5.50;;;;;;;17.00;29.89;94308.91;5054404;28;20040;-90
2022/03/26 06:26:49;;;;;;;11.80;5.82;;;;;;;17.05;29.65;94316.41;5039578;28;20037;-90
2022/03/26 06:29:16;;;;;;;8.23;5.53;;;;;;;17.03;29.52;94311.44;5055058;28;20044;-89
2022/03/26 06:31:42;;;;;;;7.20;5.20;;;;;;;17.04;29.67;94314.91;5020424;28;20058;-89
2022/03/26 06:34:07;;;;;;;7.20;4.97;;;;;;;17.03;29.46;94314.16;5053757;28;20348;-89
2022/03/26 06:36:35;;;;;;;6.85;4.90;;;;;;;17.06;29.41;94318.69;5036653;28;20036;-90
2022/03/26 06:39:02;;;;;;;7.20;5.38;;;;;;;17.06;30.01;94323.38;5020935;28;20044;-89
2022/03/26 06:41:29;;;;;;;8.10;5.50;;;;;;;17.07;29.43;94322.91;5020474;28;20415;-89
2022/03/26 06:43:54;;;;;;;6.97;5.03;;;;;;;17.08;30.18;94324.41;5024784;28;20036;-89
2022/03/26 06:46:19;;;;;;;7.32;5.47;;;;;;;17.12;29.81;94324.94;5035593;28;20032;-89
2022/03/26 06:48:45;;;;;;;6.63;4.97;;;;;;;17.11;29.53;94323.44;5034946;28;20041;-89
2022/03/26 06:51:10;;;;;;;6.53;4.45;;;;;;;17.11;29.66;94320.69;5026751;28;20404;-89
2022/03/26 06:53:36;;;;;;;6.85;4.80;;;;;;;17.16;29.51;94326.72;5050258;28;20086;-89
2022/03/26 06:56:02;;;;;;;7.03;5.53;;;;;;;17.14;29.60;94324.44;5034495;28;20980;-88
2022/03/26 06:58:29;;;;;;;10.35;6.35;;;;;;;17.18;29.70;94329.72;5031945;28;20052;-89
2022/03/26 07:00:54;;;;;;;9.30;5.90;;;;;;;17.19;29.71;94336.69;5048936;28;20051;-89
2022/03/26 07:03:19;;;;;;;7.40;5.30;;;;;;;17.20;29.42;94333.47;5031765;28;20446;-89
2022/03/26 07:05:46;;;;;;;8.50;4.95;;;;;;;17.21;29.36;94326.78;5031580;28;20040;-89
2022/03/26 07:08:11;;;;;;;7.18;4.93;;;;;;;17.21;29.29;94337.69;5031986;28;20051;-89
2022/03/26 07:10:37;;;;;;;7.15;5.10;;;;;;;17.21;29.58;94339.69;5048694;28;20036;-90
2022/03/26 07:13:03;;;;;;;7.68;5.47;;;;;;;17.21;29.67;94331.50;5031230;28;20036;-89
2022/03/26 07:15:31;;;;;;;6.22;4.65;;;;;;;17.23;29.37;94348.16;5032494;28;20132;-89
2022/03/26 07:17:57;;;;;;;8.25;5.03;;;;;;;17.25;29.56;94340.97;5033875;28;20456;-89
2022/03/26 07:20:23;;;;;;;6.03;4.53;;;;;;;17.24;29.47;94349.66;5033231;28;20047;-89
2022/03/26 07:22:49;;;;;;;7.03;5.10;;;;;;;17.28;29.28;94340.03;5036697;28;20123;-89
2022/03/26 07:25:14;;;;;;;42.92;7.88;;;;;;;17.27;29.36;94341.25;5050594;28;20423;-89
2022/03/26 07:27:40;;;;;;;17.55;5.38;;;;;;;17.28;29.59;94344.75;5048403;28;20036;-89
2022/03/26 07:30:06;;;;;;;10.40;4.82;;;;;;;17.31;29.30;94355.47;5065034;28;20494;-89
2022/03/26 07:32:31;;;;;;;6.85;5.40;;;;;;;17.32;29.72;94356.94;5016223;28;20041;-90
2022/03/26 07:34:56;;;;;;;9.80;5.75;;;;;;;17.31;29.40;94352.72;5031933;28;20036;-89
2022/03/26 07:37:22;;;;;;;8.07;4.78;;;;;;;17.32;29.50;94342.56;5048344;28;20090;-89
2022/03/26 07:39:47;;;;;;;13.93;5.60;;;;;;;17.30;29.62;94353.97;5031871;28;20028;-90
2022/03/26 07:42:13;;;;;;;10.98;4.57;;;;;;;17.33;29.78;94349.50;5031265;28;20491;-89
2022/03/26 07:44:38;;;;;;;6.55;4.60;;;;;;;17.32;29.45;94356.22;5049072;28;20043;-89
2022/03/26 07:47:04;;;;;;;10.07;4.40;;;;;;;17.35;29.80;94360.69;5015779;28;20047;-89
2022/03/26 07:49:29;;;;;;;6.90;4.45;;;;;;;17.33;29.27;94358.44;5044097;28;20036;-90
2022/03/26 07:51:55;;;;;;;9.90;4.25;;;;;;;17.35;29.69;94355.97;5031576;28;20055;-89
2022/03/26 07:54:20;;;;;;;7.25;4.53;;;;;;;17.36;29.38;94359.47;5031512;28;20032;-90
2022/03/26 07:56:46;;;;;;;9.50;4.53;;;;;;;17.39;29.13;94356.53;5048447;28;20032;-90
2022/03/26 07:59:11;;;;;;;7.63;4.95;;;;;;;17.41;29.39;94358.78;5052410;28;20032;-89
2022/03/26 08:01:36;;;;;;;6.70;4.28;;;;;;;17.39;29.54;94367.47;5051585;28;20036;-89
2022/03/26 08:04:02;;;;;;;7.57;4.93;;;;;;;17.41;29.22;94359.53;5051717;28;20120;-89
2022/03/26 08:06:30;;;;;;;9.75;4.55;;;;;;;17.41;29.65;94356.03;5052153;28;20032;-89
2022/03/26 08:08:57;;;;;;;7.57;4.85;;;;;;;17.42;29.49;94365.75;5052763;28;20033;-89
2022/03/26 08:11:22;;;;;;;6.18;4.57;;;;;;;17.45;29.31;94353.84;5030224;28;20052;-89
2022/03/26 08:13:48;;;;;;;6.53;4.22;;;;;;;17.43;29.44;94361.78;5030716;28;20108;-89
2022/03/26 08:16:13;;;;;;;6.90;5.57;;;;;;;17.43;29.41;94359.06;5046858;28;20526;-90
2022/03/26 08:18:39;;;;;;;6.78;4.45;;;;;;;17.46;29.18;94366.28;5031124;28;20045;-89
2022/03/26 08:21:05;;;;;;;10.48;4.57;;;;;;;17.45;29.29;94362.81;5029393;28;20847;-89
2022/03/26 08:23:31;;;;;;;9.23;4.55;;;;;;;17.46;29.35;94379.97;5035762;28;20053;-89
2022/03/26 08:28:40;;;;;;;7.03;4.72;;;;;;;17.48;29.79;94374.78;5013881;28;20052;-90
2022/03/26 08:31:06;;;;;;;7.80;4.72;;;;;;;17.50;29.19;94377.03;5010325;28;20045;-89
2022/03/26 08:33:31;;;;;;;7.88;4.78;;;;;;;17.47;29.17;94382.22;5010419;28;20515;-90
2022/03/26 08:35:57;;;;;;;7.05;4.50;;;;;;;17.47;29.47;94382.22;4994001;28;20061;-90
2022/03/26 08:38:22;;;;;;;6.18;4.50;;;;;;;17.50;29.06;94383.25;4994476;28;20519;-90
2022/03/26 08:40:48;;;;;;;8.48;4.82;;;;;;;17.51;29.02;94378.53;4978677;28;20042;-90
2022/03/26 08:43:14;;;;;;;5.07;3.85;;;;;;;17.52;29.28;94380.03;5010161;28;20056;-90
2022/03/26 08:45:42;;;;;;;7.07;5.38;;;;;;;17.47;29.30;94384.94;5002202;28;20036;-89
2022/03/26 08:48:08;;;;;;;6.43;4.13;;;;;;;17.50;29.36;94379.75;5013634;28;20424;-90
2022/03/26 08:50:33;;;;;;;7.22;4.65;;;;;;;17.49;29.06;94379.00;4997631;28;20056;-90
2022/03/26 08:52:59;;;;;;;7.90;4.85;;;;;;;17.50;29.00;94385.22;4996076;28;20065;-90
2022/03/26 08:55:24;;;;;;;8.07;5.00;;;;;;;17.49;29.12;94379.00;5024943;28;20056;-89
2022/03/26 08:57:50;;;;;;;6.15;4.68;;;;;;;17.50;29.29;94382.50;5034789;28;20576;-89
2022/03/26 09:00:16;;;;;;;6.40;4.47;;;;;;;17.52;29.47;94380.03;5036549;28;20487;-89
2022/03/26 09:02:41;;;;;;;7.03;4.43;;;;;;;17.48;29.20;94386.44;5054364;28;20032;-90
2022/03/26 09:05:07;;;;;;;7.10;4.47;;;;;;;17.49;29.25;94368.06;5071335;28;20040;-90
2022/03/26 09:07:35;;;;;;;7.43;4.70;;;;;;;17.50;29.50;94379.75;5054712;28;20044;-89
2022/03/26 09:10:02;;;;;;;7.60;4.47;;;;;;;17.49;29.34;94384.47;5054678;28;20036;-90
2022/03/26 09:12:30;;;;;;;5.72;3.88;;;;;;;17.51;29.29;94389.47;5053712;28;20072;-90
2022/03/26 09:14:56;;;;;;;6.00;4.18;;;;;;;17.51;29.27;94386.72;5055222;28;20042;-90
2022/03/26 09:17:21;;;;;;;5.88;4.57;;;;;;;17.50;28.87;94385.97;5054478;28;20038;-90
2022/03/26 09:19:46;;;;;;;5.82;4.47;;;;;;;17.50;29.41;94382.50;5071167;28;20040;-90
2022/03/26 09:22:12;;;;;;;8.30;4.40;;;;;;;17.50;29.32;94383.25;5053777;28;20043;-90
2022/03/26 09:24:37;;;;;;;7.45;5.13;;;;;;;17.50;29.39;94375.03;5037020;28;20037;-90
2022/03/26 09:27:03;;;;;;;6.57;4.32;;;;;;;17.50;29.12;94382.50;5037236;28;20466;-90
2022/03/26 09:29:28;;;;;;;6.57;5.00;;;;;;;17.50;29.17;94377.03;5054624;28;20450;-90
2022/03/26 09:31:54;;;;;;;7.53;5.00;;;;;;;17.48;29.33;94367.31;5053736;28;20032;-90
2022/03/26 09:34:20;;;;;;;7.55;5.28;;;;;;;17.48;29.33;94372.78;5054430;28;20123;-89
2022/03/26 09:36:45;;;;;;;7.05;5.07;;;;;;;17.50;29.00;94366.84;5054186;28;20048;-90
2022/03/26 09:39:11;;;;;;;7.18;4.72;;;;;;;17.49;29.28;94368.06;5070347;28;20051;-90
2022/03/26 09:41:36;;;;;;;6.68;4.40;;;;;;;17.51;29.21;94373.06;5054589;28;20040;-90
2022/03/26 09:44:02;;;;;;;6.43;4.60;;;;;;;17.50;29.48;94375.03;5052878;28;20045;-90
2022/03/26 09:46:28;;;;;;;8.55;5.55;;;;;;;17.51;29.25;94373.81;5019432;28;20029;-90
2022/03/26 09:48:53;;;;;;;8.32;5.15;;;;;;;17.52;29.76;94369.09;5047067;28;20124;-90
2022/03/26 09:51:20;;;;;;;10.43;5.18;;;;;;;17.50;29.59;94375.03;5013389;28;20120;-90
2022/03/26 09:53:47;;;;;;;8.20;4.95;;;;;;;17.48;29.16;94364.59;5029975;28;20187;-90
2022/03/26 09:56:13;;;;;;;7.70;4.88;;;;;;;17.48;29.27;94378.25;5013274;28;20052;-90
2022/03/26 09:58:38;;;;;;;5.90;4.35;;;;;;;17.51;29.61;94373.81;5030098;28;20033;-90
2022/03/26 10:01:03;;;;;;;7.22;5.13;;;;;;;17.49;29.26;94368.06;5045974;28;20119;-90
2022/03/26 10:03:29;;;;;;;6.75;4.82;;;;;;;17.50;29.07;94371.56;5030019;28;20470;-89
2022/03/26 10:06:02;;;;;;;10.80;5.22;;;;;;;17.48;29.28;94370.06;5014148;28;20033;-90
2022/03/26 10:08:37;;;;;;;8.65;5.05;;;;;;;17.48;29.47;94364.59;5030469;28;20040;-90
2022/03/26 10:11:03;;;;;;;7.28;5.00;;;;;;;17.49;29.30;94362.59;5013669;28;20052;-90
2022/03/26 10:13:33;;;;;;;7.47;4.97;;;;;;;17.49;29.53;94362.59;5013518;28;20233;-91
2022/03/26 10:16:01;;;;;;;7.97;4.93;;;;;;;17.47;29.52;94359.59;5014418;28;20087;-91
2022/03/26 10:18:31;;;;;;;7.53;5.10;;;;;;;17.49;29.36;94357.13;5013990;28;20037;-90
2022/03/26 10:20:58;;;;;;;6.30;4.57;;;;;;;17.50;29.32;94361.38;5013209;28;20028;-90
2022/03/26 10:23:28;;;;;;;8.40;5.07;;;;;;;17.47;29.35;94354.88;5029579;28;20593;-90
2022/03/26 10:26:08;;;;;;;7.82;4.85;;;;;;;17.46;29.53;94356.09;5013271;28;20403;-90
2022/03/26 10:28:37;;;;;;;7.90;4.73;;;;;;;17.48;29.02;94353.66;5047313;28;20627;-90
2022/03/26 10:34:12;;;;;;;7.88;4.60;;;;;;;17.47;29.27;94340.47;5047223;28;20059;-90
2022/03/26 10:36:48;;;;;;;6.57;4.45;;;;;;;17.46;29.29;94339.72;5030369;28;20028;-90
2022/03/26 10:39:29;;;;;;;7.82;4.32;;;;;;;17.46;29.54;94344.44;5026571;28;20116;-90
2022/03/26 10:41:55;;;;;;;6.20;4.57;;;;;;;17.47;29.50;94337.72;5049771;28;20036;-89
2022/03/26 10:44:28;;;;;;;7.28;4.60;;;;;;;17.46;29.26;94336.97;5035040;28;20035;-90
2022/03/26 10:46:55;;;;;;;10.38;5.00;;;;;;;17.48;29.23;94331.03;5029605;28;20098;-90
2022/03/26 10:49:28;;;;;;;8.48;4.72;;;;;;;17.46;29.33;94326.03;5012399;28;20541;-90
2022/03/26 10:51:54;;;;;;;7.05;4.70;;;;;;;17.48;29.70;94326.31;5014306;28;20044;-90
2022/03/26 10:54:27;;;;;;;6.45;4.38;;;;;;;17.46;29.40;94330.75;5065529;28;20105;-91
2022/03/26 10:56:52;;;;;;;9.68;4.45;;;;;;;17.46;29.60;94331.50;5049334;28;20032;-90
2022/03/26 10:59:18;;;;;;;6.78;4.57;;;;;;;17.48;29.51;94331.78;5048821;28;20051;-90
2022/03/26 11:01:43;;;;;;;6.70;4.45;;;;;;;17.46;29.71;94336.97;5048438;28;20029;-90
2022/03/26 11:04:09;;;;;;;7.07;5.45;;;;;;;17.46;29.58;94331.50;5048376;28;20491;-90
2022/03/26 11:06:37;;;;;;;6.78;4.05;;;;;;;17.46;29.60;94320.56;5065807;28;20086;-90
2022/03/26 11:09:03;;;;;;;7.38;4.50;;;;;;;17.48;29.38;94325.56;5049381;28;20082;-90
2022/03/26 11:11:28;;;;;;;8.00;5.10;;;;;;;17.47;29.47;94327.53;5065887;28;20048;-90
2022/03/26 11:13:55;;;;;;;5.82;4.25;;;;;;;17.47;29.40;94332.25;5012310;28;20029;-90
2022/03/26 11:16:41;;;;;;;6.95;4.45;;;;;;;17.47;29.71;94324.06;5030766;28;20126;-90
2022/03/26 11:19:28;;;;;;;6.88;4.35;;;;;;;17.47;29.79;94324.06;5031082;28;20389;-90
2022/03/26 11:22:18;;;;;;;5.70;4.03;;;;;;;17.46;29.93;94323.31;5045323;28;20047;-91
2022/03/26 11:25:22;;;;;;;5.72;4.43;;;;;;;17.46;29.58;94322.56;5045756;28;20917;-90
2022/03/26 11:28:06;;;;;;;7.32;4.53;;;;;;;17.46;29.61;94309.63;5046852;28;20067;-91
2022/03/26 11:30:41;;;;;;;6.22;4.63;;;;;;;17.46;29.91;94317.09;5045644;28;20471;-90
2022/03/26 11:33:12;;;;;;;6.10;4.22;;;;;;;17.46;29.59;94312.38;5035047;28;20041;-91
2022/03/26 11:36:04;;;;;;;6.57;4.75;;;;;;;17.47;29.69;94304.94;5069984;28;20029;-90